Akdag, Turkey

11:37 PM +03 on April 30, 2017 (GMT +0300)
Suleyman Demirel | | Change Station

Elev 2835 ft 37.86 °N, 30.37 °E | Updated 17 minutes ago

Mostly Cloudy
Mostly Cloudy
57 °F
Feels Like 57 °F
N
7
Wind Variable Wind from North

Today
High -- | Low -- °F
--% Chance of Precip.
Yesterday
High -- | Low -- °F
Precip. -- in
Pressure 29.89 in
Visibility 6.2 miles
Clouds Scattered Clouds 3500 ft
Mostly Cloudy 10000 ft
Dew Point 37 °F
Humidity 48%
Rainfall 0.00 in
Snow Depth Not available.
6:04 AM 7:51 PM
Waxing Crescent, 25% visible
METAR LTFC 302020Z 35006KT 9999 SCT035 BKN100 14/03 Q1012
Pressure 29.89 in
Visibility 6.2 miles
Clouds Scattered Clouds 3500 ft
Mostly Cloudy 10000 ft
Dew Point 37 °F
Humidity 48%
Rainfall 0.00 in
Snow Depth Not available.
6:04 AM 7:51 PM
Waxing Crescent, 25% visible
METAR LTFC 302020Z 35006KT 9999 SCT035 BKN100 14/03 Q1012

Get Severe Weather Alerts

Thanks for signing up!

Be on the lookout for a verification email in your inbox.

You'll start receiving the daily forecast at 8 AM.

×

10-Day Weather Forecast

×

Almanac

Astronomy

Apr. 30, 2017 Rise Set
Actual Time
Civil Twilight
Nautical Twilight
Astronomical Twilight
Moon
Length of Visible Light
Length of Day
Tomorrow will be .
, % of the Moon is Illuminated

Today's Extremes

Country Highs Country Lows

Community

WunderPhotos

WunderBlog® & News

Nearby

Air Quality

  Air Quality AQ Index Pollutant
Not available.

Snow Depth

Station Depth Elevation

Earthquake Activity

City Distance Mag. Time & Date
Minimum magnitude displayed is 2.5.

Coastal Water Temperatures

Place Temperature

Stations

Nearby Weather Stations

Station Location Temp. Windchill Dew Point Humidity Wind Precip. Elev Updated Type